createdAt,value
2023-02-03T00:00:03.572Z,36.17
2023-02-03T00:02:40.980Z,38.13
2023-02-03T00:05:11.719Z,35.70
2023-02-03T00:07:44.494Z,35.40
2023-02-03T00:10:14.542Z,35.23
2023-02-03T00:12:44.385Z,34.43
2023-02-03T00:15:14.074Z,35.17
2023-02-03T00:17:43.730Z,34.80
2023-02-03T00:20:14.964Z,33.77
2023-02-03T00:22:47.382Z,34.37
2023-02-03T00:25:17.376Z,33.40
2023-02-03T00:27:47.259Z,32.97
2023-02-03T00:30:17.065Z,32.20
2023-02-03T00:32:46.679Z,31.50
2023-02-03T00:35:16.340Z,32.77
2023-02-03T00:37:54.726Z,30.67
2023-02-03T00:40:26.581Z,31.07
2023-02-03T00:42:56.354Z,30.90
2023-02-03T00:45:26.038Z,29.17
2023-02-03T00:47:55.759Z,29.97
2023-02-03T00:50:25.651Z,29.17
2023-02-03T00:52:58.063Z,29.40
2023-02-03T00:55:29.003Z,28.30
2023-02-03T00:57:58.719Z,28.37
2023-02-03T01:00:28.527Z,27.97
2023-02-03T01:02:59.009Z,29.27
2023-02-03T01:05:28.687Z,27.87
2023-02-03T01:08:01.003Z,27.10
2023-02-03T01:10:30.706Z,27.37
2023-02-03T01:13:00.492Z,27.40
2023-02-03T01:15:31.148Z,25.30
2023-02-03T01:18:00.858Z,24.50
2023-02-03T01:20:30.601Z,23.93
2023-02-03T01:23:03.993Z,24.10
2023-02-03T01:25:33.704Z,22.93
2023-02-03T01:28:06.152Z,22.87
2023-02-03T01:30:36.060Z,22.13
2023-02-03T01:33:07.041Z,22.07
2023-02-03T01:35:37.234Z,20.40
2023-02-03T01:38:09.517Z,21.20
2023-02-03T01:40:45.740Z,19.50
2023-02-03T01:43:32.009Z,19.20
2023-02-03T01:46:05.648Z,19.70
2023-02-03T01:48:37.413Z,19.60
2023-02-03T01:51:08.110Z,19.80
2023-02-03T01:53:40.436Z,18.77
2023-02-03T01:56:11.123Z,18.00
2023-02-03T01:58:43.662Z,17.60
2023-02-03T02:01:13.500Z,17.40
2023-02-03T02:03:45.747Z,17.40
2023-02-03T02:06:17.237Z,17.57
2023-02-03T02:08:53.153Z,18.07
2023-02-03T02:11:24.083Z,17.33
2023-02-03T02:13:56.415Z,16.53
2023-02-03T02:16:37.940Z,16.40
2023-02-03T02:19:27.657Z,15.47
2023-02-03T02:22:13.458Z,17.30
2023-02-03T02:25:06.137Z,14.90
2023-02-03T02:28:08.285Z,16.10
2023-02-03T02:31:05.287Z,14.80
2023-02-03T02:33:45.589Z,16.17
2023-02-03T02:36:26.299Z,14.87
2023-02-03T02:39:04.024Z,15.50
2023-02-03T02:41:42.299Z,14.33
2023-02-03T02:44:18.957Z,13.87
2023-02-03T02:46:52.438Z,15.07
2023-02-03T02:49:32.874Z,15.43
2023-02-03T02:52:07.176Z,15.30
2023-02-03T02:54:42.563Z,13.50
2023-02-03T02:57:16.511Z,14.50
2023-02-03T02:59:46.335Z,13.83
2023-02-03T03:02:17.253Z,12.93
2023-02-03T03:04:52.681Z,12.10
2023-02-03T03:07:28.656Z,12.67
2023-02-03T03:10:03.853Z,11.20
2023-02-03T03:12:38.005Z,10.87
2023-02-03T03:15:11.149Z,10.50
2023-02-03T03:17:44.945Z,9.90
2023-02-03T03:20:22.404Z,9.97
2023-02-03T03:22:56.223Z,10.77
2023-02-03T03:25:33.071Z,10.30
2023-02-03T03:28:06.013Z,10.67
2023-02-03T03:30:38.549Z,10.20
2023-02-03T03:33:10.233Z,10.23
2023-02-03T03:35:50.006Z,9.30
2023-02-03T03:38:26.355Z,11.07
2023-02-03T03:41:01.780Z,10.57
2023-02-03T03:43:34.827Z,9.33
2023-02-03T03:46:11.501Z,10.77
2023-02-03T03:48:47.993Z,9.67
2023-02-03T03:51:25.130Z,9.23
2023-02-03T03:53:56.505Z,9.90
2023-02-03T03:56:33.695Z,9.80
2023-02-03T03:59:06.710Z,8.97
2023-02-03T04:01:36.888Z,9.57
2023-02-03T04:04:12.121Z,9.97
2023-02-03T04:06:44.546Z,8.33
2023-02-03T04:09:14.278Z,8.70
2023-02-03T04:11:56.451Z,8.80
2023-02-03T04:14:26.203Z,8.60
2023-02-03T04:16:55.859Z,9.93
2023-02-03T04:19:25.581Z,8.67
2023-02-03T04:21:58.014Z,9.97
2023-02-03T04:24:27.721Z,7.70
2023-02-03T04:26:57.715Z,8.40
2023-02-03T04:29:27.400Z,8.10
2023-02-03T04:31:57.160Z,8.57
2023-02-03T04:34:27.011Z,8.10
2023-02-03T04:36:59.322Z,7.97
2023-02-03T04:39:29.010Z,8.37
2023-02-03T04:41:58.743Z,7.97
2023-02-03T04:44:28.562Z,7.57
2023-02-03T04:46:58.282Z,7.50
2023-02-03T04:49:28.113Z,7.50
2023-02-03T04:52:00.524Z,7.23
2023-02-03T04:54:30.321Z,7.20
2023-02-03T04:57:00.134Z,6.83
2023-02-03T04:59:29.957Z,6.47
2023-02-03T05:01:59.691Z,6.63
2023-02-03T05:04:29.395Z,6.30
2023-02-03T05:07:01.659Z,6.10
2023-02-03T05:09:31.943Z,7.03
2023-02-03T05:12:01.639Z,5.50
2023-02-03T05:14:31.392Z,6.43
2023-02-03T05:17:01.055Z,6.23
2023-02-03T05:19:30.736Z,5.63
2023-02-03T05:22:03.032Z,6.67
2023-02-03T05:24:32.674Z,5.93
2023-02-03T05:27:02.499Z,6.83
2023-02-03T05:29:32.159Z,5.27
2023-02-03T05:32:01.882Z,4.93
2023-02-03T05:34:31.818Z,6.43
2023-02-03T05:37:04.093Z,4.90
2023-02-03T05:39:33.778Z,4.60
2023-02-03T05:42:00.947Z,4.80
2023-02-03T05:44:31.275Z,4.60
2023-02-03T05:47:02.006Z,4.00
2023-02-03T05:49:31.804Z,4.93
2023-02-03T05:52:04.634Z,5.10
2023-02-03T05:54:34.349Z,4.50
2023-02-03T05:57:04.148Z,4.90
2023-02-03T05:59:33.808Z,4.60
2023-02-03T06:02:03.527Z,4.63
2023-02-03T06:04:33.212Z,4.37
2023-02-03T06:07:05.510Z,5.27
2023-02-03T06:09:35.402Z,5.00
2023-02-03T06:12:05.045Z,3.90
2023-02-03T06:14:34.710Z,4.90
2023-02-03T06:17:04.486Z,4.53
2023-02-03T06:19:34.231Z,3.87
2023-02-03T06:22:06.581Z,3.90
2023-02-03T06:24:36.259Z,4.57
2023-02-03T06:27:06.134Z,5.10
2023-02-03T06:29:35.841Z,3.97
2023-02-03T06:32:05.757Z,4.67
2023-02-03T06:34:35.609Z,3.83
2023-02-03T06:37:07.906Z,4.73
2023-02-03T06:39:37.677Z,4.13
2023-02-03T06:42:07.477Z,5.70
2023-02-03T06:44:37.195Z,3.83
2023-02-03T06:47:06.972Z,4.60
2023-02-03T06:49:36.682Z,4.07
2023-02-03T06:52:08.979Z,4.93
2023-02-03T06:54:38.661Z,5.47
2023-02-03T06:57:08.368Z,4.27
2023-02-03T06:59:38.110Z,5.10
2023-02-03T07:02:07.892Z,5.20
2023-02-03T07:04:38.892Z,5.10
2023-02-03T07:07:11.208Z,5.60
2023-02-03T07:09:40.935Z,5.57
2023-02-03T07:12:11.743Z,6.20
2023-02-03T07:14:41.556Z,6.50
2023-02-03T07:17:11.227Z,6.73
2023-02-03T07:19:40.897Z,6.70
2023-02-03T07:22:13.681Z,6.60
2023-02-03T07:24:43.323Z,6.90
2023-02-03T07:27:13.017Z,6.80
2023-02-03T07:29:42.703Z,7.27
2023-02-03T07:32:12.387Z,6.87
2023-02-03T07:34:42.028Z,7.57
2023-02-03T07:37:14.294Z,7.53
2023-02-03T07:39:44.215Z,8.10
2023-02-03T07:42:13.887Z,7.57
2023-02-03T07:44:47.955Z,7.60
2023-02-03T07:47:17.620Z,7.10
2023-02-03T07:49:47.242Z,8.53
2023-02-03T07:52:21.761Z,7.93
2023-02-03T07:54:51.650Z,6.97
2023-02-03T07:57:21.263Z,6.90
2023-02-03T07:59:50.881Z,6.97
2023-02-03T08:02:20.513Z,7.40
2023-02-03T08:04:50.209Z,7.20
2023-02-03T08:07:22.488Z,7.40
2023-02-03T08:09:52.113Z,6.90
2023-02-03T08:12:21.751Z,6.90
2023-02-03T08:14:51.376Z,7.00
2023-02-03T08:17:21.003Z,6.80
2023-02-03T08:19:50.653Z,6.67
2023-02-03T08:22:22.956Z,6.53
2023-02-03T08:24:52.654Z,5.93
2023-02-03T08:27:25.159Z,6.17
2023-02-03T08:29:54.810Z,6.07
2023-02-03T08:32:25.512Z,5.77
2023-02-03T08:34:56.355Z,5.77
2023-02-03T08:37:30.287Z,6.20
2023-02-03T08:40:00.181Z,5.77
2023-02-03T08:42:29.964Z,5.70
2023-02-03T08:44:59.782Z,5.43
2023-02-03T08:47:29.441Z,5.23
2023-02-03T08:49:59.062Z,5.23
2023-02-03T08:52:31.464Z,5.90
2023-02-03T08:55:01.210Z,5.50
2023-02-03T08:57:34.155Z,5.90
2023-02-03T09:00:03.811Z,5.30
2023-02-03T09:02:33.914Z,5.00
2023-02-03T09:05:04.042Z,5.43
2023-02-03T09:07:36.335Z,5.20
2023-02-03T09:10:06.712Z,4.77
2023-02-03T09:12:36.395Z,5.70
2023-02-03T09:15:06.233Z,4.80
2023-02-03T09:17:35.910Z,4.97
2023-02-03T09:20:05.794Z,4.90
2023-02-03T09:22:38.078Z,4.77
2023-02-03T09:25:08.635Z,4.70
2023-02-03T09:27:38.407Z,4.20
2023-02-03T09:30:09.630Z,3.47
2023-02-03T09:32:39.257Z,4.33
2023-02-03T09:35:09.778Z,3.90
2023-02-03T09:37:41.983Z,4.50
2023-02-03T09:40:20.380Z,3.67
2023-02-03T09:43:07.958Z,3.03
2023-02-03T09:45:37.773Z,3.33
2023-02-03T09:48:15.846Z,2.70
2023-02-03T09:50:46.958Z,2.43
2023-02-03T09:53:31.234Z,3.03
2023-02-03T09:56:02.515Z,3.20
2023-02-03T09:58:36.339Z,2.90
2023-02-03T10:01:11.414Z,3.30
2023-02-03T10:03:46.827Z,3.47
2023-02-03T10:06:25.200Z,2.57
2023-02-03T10:09:22.318Z,2.27
2023-02-03T10:12:10.700Z,2.57
2023-02-03T10:14:57.051Z,3.20
2023-02-03T10:17:33.388Z,2.90
2023-02-03T10:20:07.782Z,2.33
2023-02-03T10:22:45.809Z,2.60
2023-02-03T10:25:25.136Z,2.77
2023-02-03T10:28:02.031Z,2.70
2023-02-03T10:30:38.469Z,2.30
2023-02-03T10:33:14.046Z,2.40
2023-02-03T10:35:52.506Z,2.90
2023-02-03T10:38:34.879Z,3.30
2023-02-03T10:41:07.730Z,2.57
2023-02-03T10:43:51.823Z,3.13
2023-02-03T10:46:24.451Z,4.53
2023-02-03T10:48:54.294Z,2.80
2023-02-03T10:51:26.853Z,3.53
2023-02-03T10:53:59.913Z,3.40
2023-02-03T10:56:36.069Z,2.80
2023-02-03T10:59:10.848Z,3.57
2023-02-03T11:01:51.613Z,4.20
2023-02-03T11:06:49.836Z,2.70
2023-02-03T11:18:14.362Z,4.00
2023-02-03T11:20:47.216Z,4.20
2023-02-03T11:23:16.868Z,4.10
2023-02-03T11:25:48.901Z,4.30
2023-02-03T11:28:22.787Z,4.10
2023-02-03T11:31:00.300Z,4.07
2023-02-03T11:33:33.058Z,4.40
2023-02-03T11:36:14.321Z,5.27
2023-02-03T11:38:46.830Z,4.33
2023-02-03T11:41:24.032Z,4.07
2023-02-03T11:44:01.493Z,4.00
2023-02-03T11:46:32.416Z,5.37
2023-02-03T11:49:14.607Z,5.20
2023-02-03T11:51:56.921Z,3.90
2023-02-03T11:54:33.896Z,4.63
2023-02-03T11:57:25.471Z,5.60
2023-02-03T12:00:17.946Z,5.40
2023-02-03T12:03:17.883Z,4.60
2023-02-03T12:57:49.012Z,6.33
2023-02-03T13:09:06.360Z,4.77
2023-02-03T13:15:48.314Z,5.30
2023-02-03T13:26:03.137Z,5.60
2023-02-03T13:28:56.342Z,5.40
2023-02-03T13:31:42.988Z,5.00
2023-02-03T13:34:28.715Z,4.90
2023-02-03T13:37:29.645Z,5.57
2023-02-03T13:40:16.064Z,5.43
2023-02-03T13:43:03.801Z,6.03
2023-02-03T13:52:15.741Z,6.33
2023-02-03T13:54:55.685Z,4.70
2023-02-03T13:57:34.709Z,4.83
2023-02-03T14:00:10.965Z,4.83
2023-02-03T14:02:55.776Z,6.30
2023-02-03T14:05:49.214Z,6.70
2023-02-03T14:08:55.292Z,5.67
2023-02-03T14:11:49.624Z,5.80
2023-02-03T14:15:01.168Z,5.80
2023-02-03T14:25:46.496Z,5.87
2023-02-03T14:28:46.785Z,6.80
2023-02-03T14:39:07.329Z,6.90
2023-02-03T14:49:29.619Z,5.97
2023-02-03T14:53:00.827Z,5.60
2023-02-03T14:55:58.766Z,4.77
2023-02-03T14:59:14.613Z,4.63
2023-02-03T15:26:04.770Z,5.57
2023-02-03T15:29:06.818Z,5.17
2023-02-03T15:49:46.962Z,5.00
2023-02-03T16:34:46.346Z,6.37
2023-02-03T16:37:55.894Z,5.87
2023-02-03T16:40:54.485Z,5.67
2023-02-03T16:47:09.851Z,6.90
2023-02-03T16:50:02.109Z,6.17
2023-02-03T16:52:34.875Z,6.97
2023-02-03T16:55:05.769Z,5.10
2023-02-03T16:57:40.512Z,5.47
2023-02-03T17:00:23.132Z,5.83
2023-02-03T17:02:59.631Z,6.00
2023-02-03T17:05:42.650Z,5.07
2023-02-03T17:08:17.735Z,4.57
2023-02-03T17:10:53.202Z,5.73
2023-02-03T17:13:25.398Z,5.73
2023-02-03T17:16:00.289Z,4.70
2023-02-03T17:18:33.125Z,5.43
2023-02-03T17:21:33.381Z,5.40
2023-02-03T17:24:38.066Z,6.70
2023-02-03T17:27:24.013Z,5.67
2023-02-03T17:34:30.433Z,5.30
2023-02-03T17:37:43.751Z,4.73
2023-02-03T18:02:12.094Z,5.60
2023-02-03T18:05:36.789Z,7.60
2023-02-03T18:13:10.747Z,5.30
2023-02-03T18:22:45.547Z,5.30
2023-02-03T18:26:35.306Z,4.50
2023-02-03T18:55:16.327Z,6.30
2023-02-03T19:01:45.101Z,7.67
2023-02-03T19:07:47.293Z,7.97
2023-02-03T19:11:23.957Z,7.43
2023-02-03T19:14:21.195Z,5.63
2023-02-03T19:17:03.389Z,7.17
2023-02-03T19:23:28.633Z,6.73
2023-02-03T19:24:28.910Z,7.07
2023-02-03T19:27:14.817Z,7.13
2023-02-03T19:30:57.300Z,8.80
2023-02-03T19:37:40.290Z,7.17
2023-02-03T19:40:39.259Z,6.20
2023-02-03T19:44:06.343Z,7.03
2023-02-03T19:57:31.015Z,7.00
